Aviation Digital Data Service (ADDS)

Output produced by TAFs form (0255 UTC 01 March 2015)
found at http://aviationweather.gov/adds/tafs/
 
KDRO 282335Z 0100/0124 12005KT 3SM -SN BR SCT007 BKN030 OVC050 
     FM010200 07003KT 1 1/2SM -SN BR BKN007 BKN015 OVC025 
     TEMPO 0108/0112 4SM -SN BR SCT007 OVC025